الصفحة الرئيسية
METAR-TAF:

METAR-TAF

مطار :

Rota, جزر ماريانا, الولايات المتحدة

دائرة عرض: 14-11N, خط طول: 145-15E, ارتفاع: 185 متر

مراقبة الطقس الحالي

تاريخ ووقت الإصدار 1ساعة و 0 دقيقة قبل الساعة 23:50UTC
ريح 14 عقدة من الشرق
درجة الحرارة 27°درجة مئوية
الرطوبة 74%
ضغط 1014 hPa
الرؤية: 11.3 كم
غيوم متفرقة على ارتفاع 1300 قدم
غيوم مفككة على ارتفاع 10000 قدم

METAR: PGRO 282350Z 09014KT 7SM SCT013 BKN100 27/22 A2993

زمن: 10:50 (00:50 UTC)

توقعات

تاريخ ووقت الإصدار 1ساعة و 5 دقيقة قبل الساعة 23:45UTC
التوقعات صالحة من29 الساعة 00 UTC إلى 29 الساعة 24 UTC
ريح 14 عقدة من الشرق
الرؤية: 10 كم
غيوم متفرقة على ارتفاع 1400 قدم
غيوم متفرقة على ارتفاع 5000 قدم
زخات في الجوار

TAF: PGRO 282345Z 2900/2924 09014KT P6SM VCSH SCT014 SCT050

أرصاد الطقس والتوقعات من أكثر من 4000 مطار (تقارير الطقس للمطار METAR والتنبؤ بالطقس بالمطارTAF).

المحطات المتاحة هي النقط الصفراء والحمراء على الخريطة.

حرك المؤشر فوق النقطة لمعرفة اسم المحطة.

ثم انقر لمعرفة أرصاد وتوقعات الطقس.

لتغيير الخارطة: اضغط على الأزرار الخضراء مع رمز الصليب الأسود للتكبير. على الزر الأخضر مع شرطة للتصغير، أو على الأسهم الخضراء للخرائط المجاورة.


METAR-TAF: